sensor_id;sensor_type;location;lat;lon;timestamp;temperature;humidity
25877;DHT22;13692;47.480;19.216;2023-01-10T00:00:31;8.00;99.90
25877;DHT22;13692;47.480;19.216;2023-01-10T00:03:05;8.00;99.90
25877;DHT22;13692;47.480;19.216;2023-01-10T00:05:35;8.00;99.90
25877;DHT22;13692;47.480;19.216;2023-01-10T00:08:04;8.00;99.90
25877;DHT22;13692;47.480;19.216;2023-01-10T00:10:32;8.00;99.90
25877;DHT22;13692;47.480;19.216;2023-01-10T00:13:00;8.00;99.90
25877;DHT22;13692;47.480;19.216;2023-01-10T00:15:45;8.00;99.90
25877;DHT22;13692;47.480;19.216;2023-01-10T00:18:12;8.00;99.90
25877;DHT22;13692;47.480;19.216;2023-01-10T00:20:39;8.00;99.90
25877;DHT22;13692;47.480;19.216;2023-01-10T00:23:06;8.10;99.90
25877;DHT22;13692;47.480;19.216;2023-01-10T00:25:33;8.10;99.90
25877;DHT22;13692;47.480;19.216;2023-01-10T00:28:02;8.10;99.90
25877;DHT22;13692;47.480;19.216;2023-01-10T00:30:52;8.10;99.90
25877;DHT22;13692;47.480;19.216;2023-01-10T00:33:28;8.10;99.90
25877;DHT22;13692;47.480;19.216;2023-01-10T00:35:58;8.10;99.90
25877;DHT22;13692;47.480;19.216;2023-01-10T00:38:26;8.10;99.90
25877;DHT22;13692;47.480;19.216;2023-01-10T00:40:53;8.10;99.90
25877;DHT22;13692;47.480;19.216;2023-01-10T00:43:20;8.10;99.90
25877;DHT22;13692;47.480;19.216;2023-01-10T00:46:06;8.10;99.90
25877;DHT22;13692;47.480;19.216;2023-01-10T00:48:34;8.10;99.90
25877;DHT22;13692;47.480;19.216;2023-01-10T00:51:01;8.10;99.90
25877;DHT22;13692;47.480;19.216;2023-01-10T00:53:28;8.10;99.90
25877;DHT22;13692;47.480;19.216;2023-01-10T00:55:55;8.10;99.90
25877;DHT22;13692;47.480;19.216;2023-01-10T00:58:22;8.10;99.90
25877;DHT22;13692;47.480;19.216;2023-01-10T01:00:49;8.10;99.90
25877;DHT22;13692;47.480;19.216;2023-01-10T01:03:18;8.00;99.90
25877;DHT22;13692;47.480;19.216;2023-01-10T01:05:46;8.00;99.90
25877;DHT22;13692;47.480;19.216;2023-01-10T01:08:15;8.00;99.90
25877;DHT22;13692;47.480;19.216;2023-01-10T01:10:42;8.00;99.90
25877;DHT22;13692;47.480;19.216;2023-01-10T01:13:17;8.00;99.90
25877;DHT22;13692;47.480;19.216;2023-01-10T01:15:45;8.00;99.90
25877;DHT22;13692;47.480;19.216;2023-01-10T01:18:16;8.00;99.90
25877;DHT22;13692;47.480;19.216;2023-01-10T01:20:43;7.90;99.90
25877;DHT22;13692;47.480;19.216;2023-01-10T01:23:14;8.00;99.90
25877;DHT22;13692;47.480;19.216;2023-01-10T01:25:41;8.00;99.90
25877;DHT22;13692;47.480;19.216;2023-01-10T01:28:11;8.00;99.90
25877;DHT22;13692;47.480;19.216;2023-01-10T01:30:38;8.10;99.90
25877;DHT22;13692;47.480;19.216;2023-01-10T01:33:06;8.10;99.90
25877;DHT22;13692;47.480;19.216;2023-01-10T01:35:33;8.10;99.90
25877;DHT22;13692;47.480;19.216;2023-01-10T01:38:01;8.10;99.90
25877;DHT22;13692;47.480;19.216;2023-01-10T01:40:28;8.10;99.90
25877;DHT22;13692;47.480;19.216;2023-01-10T01:42:55;8.10;99.90
25877;DHT22;13692;47.480;19.216;2023-01-10T01:50:42;8.10;99.90
25877;DHT22;13692;47.480;19.216;2023-01-10T01:53:17;8.10;99.90
25877;DHT22;13692;47.480;19.216;2023-01-10T01:55:46;8.20;99.90
25877;DHT22;13692;47.480;19.216;2023-01-10T01:58:18;8.20;99.90
25877;DHT22;13692;47.480;19.216;2023-01-10T02:00:51;8.20;99.90
25877;DHT22;13692;47.480;19.216;2023-01-10T02:03:18;8.10;99.90
25877;DHT22;13692;47.480;19.216;2023-01-10T02:05:45;8.10;99.90
25877;DHT22;13692;47.480;19.216;2023-01-10T02:08:13;8.10;99.90
25877;DHT22;13692;47.480;19.216;2023-01-10T02:13:16;8.00;99.90
25877;DHT22;13692;47.480;19.216;2023-01-10T02:15:44;7.90;99.90
25877;DHT22;13692;47.480;19.216;2023-01-10T02:18:11;7.80;99.90
25877;DHT22;13692;47.480;19.216;2023-01-10T02:23:40;7.80;99.90
25877;DHT22;13692;47.480;19.216;2023-01-10T02:29:24;7.70;99.90
25877;DHT22;13692;47.480;19.216;2023-01-10T02:35:08;7.60;99.90
25877;DHT22;13692;47.480;19.216;2023-01-10T02:37:39;7.70;99.90
25877;DHT22;13692;47.480;19.216;2023-01-10T02:40:28;7.70;99.90
25877;DHT22;13692;47.480;19.216;2023-01-10T02:45:37;7.70;99.90
25877;DHT22;13692;47.480;19.216;2023-01-10T02:48:05;7.70;99.90
25877;DHT22;13692;47.480;19.216;2023-01-10T02:53:27;7.70;99.90
25877;DHT22;13692;47.480;19.216;2023-01-10T02:58:56;7.70;99.90
25877;DHT22;13692;47.480;19.216;2023-01-10T03:07:42;7.60;99.90
25877;DHT22;13692;47.480;19.216;2023-01-10T03:10:28;7.60;99.90
25877;DHT22;13692;47.480;19.216;2023-01-10T03:15:39;7.70;99.90
25877;DHT22;13692;47.480;19.216;2023-01-10T03:18:15;7.80;99.90
25877;DHT22;13692;47.480;19.216;2023-01-10T03:20:45;7.80;99.90
25877;DHT22;13692;47.480;19.216;2023-01-10T03:23:14;7.80;99.90
25877;DHT22;13692;47.480;19.216;2023-01-10T03:25:45;7.90;99.90
25877;DHT22;13692;47.480;19.216;2023-01-10T03:28:19;7.90;99.90
25877;DHT22;13692;47.480;19.216;2023-01-10T03:31:13;7.90;99.90
25877;DHT22;13692;47.480;19.216;2023-01-10T03:33:38;7.90;99.90
25877;DHT22;13692;47.480;19.216;2023-01-10T03:36:27;7.90;99.90
25877;DHT22;13692;47.480;19.216;2023-01-10T03:41:47;7.90;99.90
25877;DHT22;13692;47.480;19.216;2023-01-10T03:47:36;7.90;99.90
25877;DHT22;13692;47.480;19.216;2023-01-10T03:50:21;8.00;99.90
25877;DHT22;13692;47.480;19.216;2023-01-10T03:52:48;8.00;99.90
25877;DHT22;13692;47.480;19.216;2023-01-10T03:55:26;7.90;99.90
25877;DHT22;13692;47.480;19.216;2023-01-10T03:57:53;8.00;99.90
25877;DHT22;13692;47.480;19.216;2023-01-10T04:00:20;8.00;99.90
25877;DHT22;13692;47.480;19.216;2023-01-10T04:02:47;7.90;99.90
25877;DHT22;13692;47.480;19.216;2023-01-10T04:05:14;7.90;99.90
25877;DHT22;13692;47.480;19.216;2023-01-10T04:07:41;7.90;99.90
25877;DHT22;13692;47.480;19.216;2023-01-10T04:10:09;7.90;99.90
25877;DHT22;13692;47.480;19.216;2023-01-10T04:12:36;7.90;99.90
25877;DHT22;13692;47.480;19.216;2023-01-10T04:15:03;8.00;99.90
25877;DHT22;13692;47.480;19.216;2023-01-10T04:17:30;8.00;99.90
25877;DHT22;13692;47.480;19.216;2023-01-10T04:19:57;8.00;99.90
25877;DHT22;13692;47.480;19.216;2023-01-10T04:22:24;7.90;99.90
25877;DHT22;13692;47.480;19.216;2023-01-10T04:24:51;7.90;99.90
25877;DHT22;13692;47.480;19.216;2023-01-10T04:27:19;7.90;99.90
25877;DHT22;13692;47.480;19.216;2023-01-10T04:29:46;7.90;99.90
25877;DHT22;13692;47.480;19.216;2023-01-10T04:32:13;7.90;99.90
25877;DHT22;13692;47.480;19.216;2023-01-10T04:34:40;7.90;99.90
25877;DHT22;13692;47.480;19.216;2023-01-10T04:37:07;7.90;99.90
25877;DHT22;13692;47.480;19.216;2023-01-10T04:39:34;7.90;99.90
25877;DHT22;13692;47.480;19.216;2023-01-10T04:42:01;7.90;99.90
25877;DHT22;13692;47.480;19.216;2023-01-10T04:44:28;7.90;99.90
25877;DHT22;13692;47.480;19.216;2023-01-10T04:46:55;7.90;99.90
25877;DHT22;13692;47.480;19.216;2023-01-10T04:49:21;7.90;99.90
25877;DHT22;13692;47.480;19.216;2023-01-10T04:51:48;7.90;99.90
25877;DHT22;13692;47.480;19.216;2023-01-10T04:54:19;7.90;99.90
25877;DHT22;13692;47.480;19.216;2023-01-10T04:56:46;8.00;99.90
25877;DHT22;13692;47.480;19.216;2023-01-10T04:59:14;8.00;99.90
25877;DHT22;13692;47.480;19.216;2023-01-10T05:01:41;8.00;99.90
25877;DHT22;13692;47.480;19.216;2023-01-10T05:04:08;8.00;99.90
25877;DHT22;13692;47.480;19.216;2023-01-10T05:06:36;8.00;99.90
25877;DHT22;13692;47.480;19.216;2023-01-10T05:09:06;8.00;99.90
25877;DHT22;13692;47.480;19.216;2023-01-10T05:11:33;8.00;99.90
25877;DHT22;13692;47.480;19.216;2023-01-10T05:14:00;8.00;99.90
25877;DHT22;13692;47.480;19.216;2023-01-10T05:16:28;8.00;99.90
25877;DHT22;13692;47.480;19.216;2023-01-10T05:18:55;8.00;99.90
25877;DHT22;13692;47.480;19.216;2023-01-10T05:21:22;8.10;99.90
25877;DHT22;13692;47.480;19.216;2023-01-10T05:23:49;8.10;99.90
25877;DHT22;13692;47.480;19.216;2023-01-10T05:26:21;8.10;99.90
25877;DHT22;13692;47.480;19.216;2023-01-10T05:28:48;8.10;99.90
25877;DHT22;13692;47.480;19.216;2023-01-10T05:31:17;8.10;99.90
25877;DHT22;13692;47.480;19.216;2023-01-10T05:33:48;8.10;99.90
25877;DHT22;13692;47.480;19.216;2023-01-10T05:36:17;8.10;99.90
25877;DHT22;13692;47.480;19.216;2023-01-10T05:38:44;8.10;99.90
25877;DHT22;13692;47.480;19.216;2023-01-10T05:41:11;8.10;99.90
25877;DHT22;13692;47.480;19.216;2023-01-10T05:43:38;8.10;99.90
25877;DHT22;13692;47.480;19.216;2023-01-10T05:46:05;8.10;99.90
25877;DHT22;13692;47.480;19.216;2023-01-10T05:48:33;8.00;99.90
25877;DHT22;13692;47.480;19.216;2023-01-10T05:51:00;8.10;99.90
25877;DHT22;13692;47.480;19.216;2023-01-10T05:53:27;8.10;99.90
25877;DHT22;13692;47.480;19.216;2023-01-10T05:55:58;8.10;99.90
25877;DHT22;13692;47.480;19.216;2023-01-10T05:58:25;8.10;99.90
25877;DHT22;13692;47.480;19.216;2023-01-10T06:00:54;8.10;99.90
25877;DHT22;13692;47.480;19.216;2023-01-10T06:03:22;8.10;99.90
25877;DHT22;13692;47.480;19.216;2023-01-10T06:05:49;8.10;99.90
25877;DHT22;13692;47.480;19.216;2023-01-10T06:08:16;8.00;99.90
25877;DHT22;13692;47.480;19.216;2023-01-10T06:10:43;8.10;99.90
25877;DHT22;13692;47.480;19.216;2023-01-10T06:13:10;8.10;99.90
25877;DHT22;13692;47.480;19.216;2023-01-10T06:15:38;8.10;99.90
25877;DHT22;13692;47.480;19.216;2023-01-10T06:18:05;8.20;99.90
25877;DHT22;13692;47.480;19.216;2023-01-10T06:20:32;8.20;99.90
25877;DHT22;13692;47.480;19.216;2023-01-10T06:22:59;8.20;99.90
25877;DHT22;13692;47.480;19.216;2023-01-10T06:25:31;8.20;99.90
25877;DHT22;13692;47.480;19.216;2023-01-10T06:28:00;8.20;99.90
25877;DHT22;13692;47.480;19.216;2023-01-10T06:30:27;8.20;99.90
25877;DHT22;13692;47.480;19.216;2023-01-10T06:33:02;8.20;99.90
25877;DHT22;13692;47.480;19.216;2023-01-10T06:35:30;8.30;99.90
25877;DHT22;13692;47.480;19.216;2023-01-10T06:37:57;8.30;99.90
25877;DHT22;13692;47.480;19.216;2023-01-10T06:40:24;8.20;99.90
25877;DHT22;13692;47.480;19.216;2023-01-10T06:42:52;8.30;99.90
25877;DHT22;13692;47.480;19.216;2023-01-10T06:45:18;8.20;99.90
25877;DHT22;13692;47.480;19.216;2023-01-10T06:47:45;8.30;99.90
25877;DHT22;13692;47.480;19.216;2023-01-10T06:50:13;8.20;99.90
25877;DHT22;13692;47.480;19.216;2023-01-10T06:52:40;8.20;99.90
25877;DHT22;13692;47.480;19.216;2023-01-10T06:55:07;8.20;99.90
25877;DHT22;13692;47.480;19.216;2023-01-10T06:57:35;8.20;99.90
25877;DHT22;13692;47.480;19.216;2023-01-10T07:00:06;8.20;99.90
25877;DHT22;13692;47.480;19.216;2023-01-10T07:02:33;8.20;99.90
25877;DHT22;13692;47.480;19.216;2023-01-10T07:05:00;8.20;99.90
25877;DHT22;13692;47.480;19.216;2023-01-10T07:07:27;8.20;99.90
25877;DHT22;13692;47.480;19.216;2023-01-10T07:09:54;8.20;99.90
25877;DHT22;13692;47.480;19.216;2023-01-10T07:12:21;8.10;99.90
25877;DHT22;13692;47.480;19.216;2023-01-10T07:14:48;8.10;99.90
25877;DHT22;13692;47.480;19.216;2023-01-10T07:17:15;8.20;99.90
25877;DHT22;13692;47.480;19.216;2023-01-10T07:19:42;8.20;99.90
25877;DHT22;13692;47.480;19.216;2023-01-10T07:22:10;8.20;99.90
25877;DHT22;13692;47.480;19.216;2023-01-10T07:24:37;8.10;99.90
25877;DHT22;13692;47.480;19.216;2023-01-10T07:27:04;8.00;99.90
25877;DHT22;13692;47.480;19.216;2023-01-10T07:29:31;8.00;99.90
25877;DHT22;13692;47.480;19.216;2023-01-10T07:31:58;8.00;99.90
25877;DHT22;13692;47.480;19.216;2023-01-10T07:34:25;8.00;99.90
25877;DHT22;13692;47.480;19.216;2023-01-10T07:36:52;7.90;99.90
25877;DHT22;13692;47.480;19.216;2023-01-10T07:39:19;7.90;99.90
25877;DHT22;13692;47.480;19.216;2023-01-10T07:41:47;7.80;99.90
25877;DHT22;13692;47.480;19.216;2023-01-10T07:44:14;7.80;99.90
25877;DHT22;13692;47.480;19.216;2023-01-10T07:46:41;7.80;99.90
25877;DHT22;13692;47.480;19.216;2023-01-10T07:49:08;7.70;99.90
25877;DHT22;13692;47.480;19.216;2023-01-10T07:51:35;7.70;99.90
25877;DHT22;13692;47.480;19.216;2023-01-10T07:54:02;7.70;99.90
25877;DHT22;13692;47.480;19.216;2023-01-10T07:56:29;7.60;99.90
25877;DHT22;13692;47.480;19.216;2023-01-10T07:58:56;7.60;99.90
25877;DHT22;13692;47.480;19.216;2023-01-10T08:01:23;7.60;99.90
25877;DHT22;13692;47.480;19.216;2023-01-10T08:03:51;7.60;99.90
25877;DHT22;13692;47.480;19.216;2023-01-10T08:06:18;7.60;99.90
25877;DHT22;13692;47.480;19.216;2023-01-10T08:08:45;7.60;99.90
25877;DHT22;13692;47.480;19.216;2023-01-10T08:11:12;7.50;99.90
25877;DHT22;13692;47.480;19.216;2023-01-10T08:13:39;7.50;99.90
25877;DHT22;13692;47.480;19.216;2023-01-10T08:16:07;7.50;99.90
25877;DHT22;13692;47.480;19.216;2023-01-10T08:18:34;7.50;99.90
25877;DHT22;13692;47.480;19.216;2023-01-10T08:21:01;7.50;99.90
25877;DHT22;13692;47.480;19.216;2023-01-10T08:23:28;7.50;99.90
25877;DHT22;13692;47.480;19.216;2023-01-10T08:25:57;7.50;99.90
25877;DHT22;13692;47.480;19.216;2023-01-10T08:28:25;7.50;99.90
25877;DHT22;13692;47.480;19.216;2023-01-10T08:30:52;7.40;99.90
25877;DHT22;13692;47.480;19.216;2023-01-10T08:33:22;7.40;99.90
25877;DHT22;13692;47.480;19.216;2023-01-10T08:35:50;7.40;99.90
25877;DHT22;13692;47.480;19.216;2023-01-10T08:38:17;7.40;99.90
25877;DHT22;13692;47.480;19.216;2023-01-10T08:40:44;7.40;99.90
25877;DHT22;13692;47.480;19.216;2023-01-10T08:43:11;7.40;99.90
25877;DHT22;13692;47.480;19.216;2023-01-10T08:45:39;7.50;99.90
25877;DHT22;13692;47.480;19.216;2023-01-10T08:48:06;7.50;99.90
25877;DHT22;13692;47.480;19.216;2023-01-10T08:50:35;7.50;99.90
25877;DHT22;13692;47.480;19.216;2023-01-10T08:53:02;7.50;99.90
25877;DHT22;13692;47.480;19.216;2023-01-10T08:55:29;7.50;99.90
25877;DHT22;13692;47.480;19.216;2023-01-10T08:58:00;7.50;99.90
25877;DHT22;13692;47.480;19.216;2023-01-10T09:00:27;7.40;99.90
25877;DHT22;13692;47.480;19.216;2023-01-10T09:02:54;7.40;99.90
25877;DHT22;13692;47.480;19.216;2023-01-10T09:05:22;7.40;99.90
25877;DHT22;13692;47.480;19.216;2023-01-10T09:07:58;7.30;99.90
25877;DHT22;13692;47.480;19.216;2023-01-10T09:10:27;7.30;99.90
25877;DHT22;13692;47.480;19.216;2023-01-10T09:12:55;7.30;99.90
25877;DHT22;13692;47.480;19.216;2023-01-10T09:15:25;7.30;99.90
25877;DHT22;13692;47.480;19.216;2023-01-10T09:17:56;7.30;99.90
25877;DHT22;13692;47.480;19.216;2023-01-10T09:20:25;7.30;99.90
25877;DHT22;13692;47.480;19.216;2023-01-10T09:22:52;7.40;99.90
25877;DHT22;13692;47.480;19.216;2023-01-10T09:25:20;7.40;99.90
25877;DHT22;13692;47.480;19.216;2023-01-10T09:27:58;7.30;99.90
25877;DHT22;13692;47.480;19.216;2023-01-10T09:30:26;7.30;99.90
25877;DHT22;13692;47.480;19.216;2023-01-10T09:32:54;7.30;99.90
25877;DHT22;13692;47.480;19.216;2023-01-10T09:35:23;7.30;99.90
25877;DHT22;13692;47.480;19.216;2023-01-10T09:37:59;7.20;99.90
25877;DHT22;13692;47.480;19.216;2023-01-10T09:49:05;7.00;99.90
25877;DHT22;13692;47.480;19.216;2023-01-10T09:51:45;7.00;99.90
25877;DHT22;13692;47.480;19.216;2023-01-10T09:54:25;7.00;99.90
25877;DHT22;13692;47.480;19.216;2023-01-10T09:56:55;7.00;99.90
25877;DHT22;13692;47.480;19.216;2023-01-10T09:59:25;7.00;99.90
25877;DHT22;13692;47.480;19.216;2023-01-10T10:02:03;7.00;99.90
25877;DHT22;13692;47.480;19.216;2023-01-10T10:04:38;6.90;99.90
25877;DHT22;13692;47.480;19.216;2023-01-10T10:07:13;6.90;99.90
25877;DHT22;13692;47.480;19.216;2023-01-10T10:09:41;6.90;99.90
25877;DHT22;13692;47.480;19.216;2023-01-10T10:12:47;6.90;99.90
25877;DHT22;13692;47.480;19.216;2023-01-10T10:15:54;6.90;99.90
25877;DHT22;13692;47.480;19.216;2023-01-10T10:18:43;6.90;99.90
25877;DHT22;13692;47.480;19.216;2023-01-10T10:24:39;6.90;99.90
25877;DHT22;13692;47.480;19.216;2023-01-10T10:27:23;6.90;99.90
25877;DHT22;13692;47.480;19.216;2023-01-10T10:34:04;6.90;99.90
25877;DHT22;13692;47.480;19.216;2023-01-10T10:38:36;6.90;99.90
25877;DHT22;13692;47.480;19.216;2023-01-10T10:43:48;6.90;99.90
25877;DHT22;13692;47.480;19.216;2023-01-10T10:46:16;7.00;99.90
25877;DHT22;13692;47.480;19.216;2023-01-10T10:49:02;6.90;99.90
25877;DHT22;13692;47.480;19.216;2023-01-10T10:51:50;6.80;99.90
25877;DHT22;13692;47.480;19.216;2023-01-10T10:54:17;6.80;99.90
25877;DHT22;13692;47.480;19.216;2023-01-10T10:56:45;6.80;99.90
25877;DHT22;13692;47.480;19.216;2023-01-10T10:59:19;6.80;99.90
25877;DHT22;13692;47.480;19.216;2023-01-10T11:01:48;6.80;99.90
25877;DHT22;13692;47.480;19.216;2023-01-10T11:04:21;6.80;99.90
25877;DHT22;13692;47.480;19.216;2023-01-10T11:06:49;6.80;99.90
25877;DHT22;13692;47.480;19.216;2023-01-10T11:09:19;6.70;99.90
25877;DHT22;13692;47.480;19.216;2023-01-10T11:12:16;6.70;99.90
25877;DHT22;13692;47.480;19.216;2023-01-10T11:14:47;6.80;99.90
25877;DHT22;13692;47.480;19.216;2023-01-10T11:17:23;6.70;99.90
25877;DHT22;13692;47.480;19.216;2023-01-10T11:19:58;6.70;99.90
25877;DHT22;13692;47.480;19.216;2023-01-10T11:25:14;6.70;99.90
25877;DHT22;13692;47.480;19.216;2023-01-10T11:27:47;6.70;99.90
25877;DHT22;13692;47.480;19.216;2023-01-10T11:30:24;6.70;99.90
25877;DHT22;13692;47.480;19.216;2023-01-10T11:32:54;6.70;99.90
25877;DHT22;13692;47.480;19.216;2023-01-10T11:35:36;6.70;99.90
25877;DHT22;13692;47.480;19.216;2023-01-10T11:40:32;6.70;99.90
25877;DHT22;13692;47.480;19.216;2023-01-10T11:45:58;6.80;99.90
25877;DHT22;13692;47.480;19.216;2023-01-10T11:54:31;6.70;99.90
25877;DHT22;13692;47.480;19.216;2023-01-10T11:57:21;6.70;99.90
25877;DHT22;13692;47.480;19.216;2023-01-10T12:02:27;6.70;99.90
25877;DHT22;13692;47.480;19.216;2023-01-10T12:04:57;6.80;99.90
25877;DHT22;13692;47.480;19.216;2023-01-10T12:07:25;6.80;99.90
25877;DHT22;13692;47.480;19.216;2023-01-10T12:09:56;6.80;99.90
25877;DHT22;13692;47.480;19.216;2023-01-10T12:12:32;6.80;99.90
25877;DHT22;13692;47.480;19.216;2023-01-10T12:15:40;6.80;99.90
25877;DHT22;13692;47.480;19.216;2023-01-10T12:18:06;6.80;99.90
25877;DHT22;13692;47.480;19.216;2023-01-10T12:20:52;6.80;99.90
25877;DHT22;13692;47.480;19.216;2023-01-10T12:23:21;6.90;99.90
25877;DHT22;13692;47.480;19.216;2023-01-10T12:25:50;6.90;99.90
25877;DHT22;13692;47.480;19.216;2023-01-10T12:28:34;6.80;99.90
25877;DHT22;13692;47.480;19.216;2023-01-10T12:31:03;6.80;99.90
25877;DHT22;13692;47.480;19.216;2023-01-10T12:33:35;6.80;99.90
25877;DHT22;13692;47.480;19.216;2023-01-10T12:39:01;6.90;99.90
25877;DHT22;13692;47.480;19.216;2023-01-10T12:44:44;6.90;99.90
25877;DHT22;13692;47.480;19.216;2023-01-10T12:52:48;6.90;99.90
25877;DHT22;13692;47.480;19.216;2023-01-10T12:55:20;6.90;99.90
25877;DHT22;13692;47.480;19.216;2023-01-10T12:57:51;6.90;99.90
25877;DHT22;13692;47.480;19.216;2023-01-10T13:00:23;6.90;99.90
25877;DHT22;13692;47.480;19.216;2023-01-10T13:02:55;6.90;99.90
25877;DHT22;13692;47.480;19.216;2023-01-10T13:05:28;6.90;99.90
25877;DHT22;13692;47.480;19.216;2023-01-10T13:08:03;6.90;99.90
25877;DHT22;13692;47.480;19.216;2023-01-10T13:10:42;6.90;99.90
25877;DHT22;13692;47.480;19.216;2023-01-10T13:13:32;6.90;99.90
25877;DHT22;13692;47.480;19.216;2023-01-10T13:16:25;6.90;99.90
25877;DHT22;13692;47.480;19.216;2023-01-10T13:19:26;6.90;99.90
25877;DHT22;13692;47.480;19.216;2023-01-10T13:22:17;6.90;99.90
25877;DHT22;13692;47.480;19.216;2023-01-10T13:24:56;6.90;99.90
25877;DHT22;13692;47.480;19.216;2023-01-10T13:27:31;6.90;99.90
25877;DHT22;13692;47.480;19.216;2023-01-10T13:29:59;6.90;99.90
25877;DHT22;13692;47.480;19.216;2023-01-10T13:32:32;6.90;99.90
25877;DHT22;13692;47.480;19.216;2023-01-10T13:35:16;6.90;99.90
25877;DHT22;13692;47.480;19.216;2023-01-10T13:37:50;6.90;99.90
25877;DHT22;13692;47.480;19.216;2023-01-10T13:40:27;6.90;99.90
25877;DHT22;13692;47.480;19.216;2023-01-10T13:51:18;6.90;99.90
25877;DHT22;13692;47.480;19.216;2023-01-10T13:56:31;6.90;99.90
25877;DHT22;13692;47.480;19.216;2023-01-10T13:58:58;6.90;99.90
25877;DHT22;13692;47.480;19.216;2023-01-10T14:01:49;7.00;99.90
25877;DHT22;13692;47.480;19.216;2023-01-10T14:04:39;6.90;99.90
25877;DHT22;13692;47.480;19.216;2023-01-10T14:09:47;6.90;99.90
25877;DHT22;13692;47.480;19.216;2023-01-10T14:12:31;6.90;99.90
25877;DHT22;13692;47.480;19.216;2023-01-10T14:15:19;7.00;99.90
25877;DHT22;13692;47.480;19.216;2023-01-10T14:17:58;7.00;99.90
25877;DHT22;13692;47.480;19.216;2023-01-10T14:20:28;7.00;99.90
25877;DHT22;13692;47.480;19.216;2023-01-10T14:23:17;6.90;99.90
25877;DHT22;13692;47.480;19.216;2023-01-10T14:25:52;7.00;99.90
25877;DHT22;13692;47.480;19.216;2023-01-10T14:28:26;7.00;99.90
25877;DHT22;13692;47.480;19.216;2023-01-10T14:33:30;7.00;99.90
25877;DHT22;13692;47.480;19.216;2023-01-10T14:36:02;7.00;99.90
25877;DHT22;13692;47.480;19.216;2023-01-10T14:38:33;7.00;99.90
25877;DHT22;13692;47.480;19.216;2023-01-10T14:41:17;7.00;99.90
25877;DHT22;13692;47.480;19.216;2023-01-10T14:43:56;7.00;99.90
25877;DHT22;13692;47.480;19.216;2023-01-10T14:46:47;7.00;99.90
25877;DHT22;13692;47.480;19.216;2023-01-10T14:49:19;7.00;99.90
25877;DHT22;13692;47.480;19.216;2023-01-10T14:51:46;7.10;99.90
25877;DHT22;13692;47.480;19.216;2023-01-10T14:54:19;7.10;99.90
25877;DHT22;13692;47.480;19.216;2023-01-10T14:56:48;7.10;99.90
25877;DHT22;13692;47.480;19.216;2023-01-10T15:04:30;7.10;99.90
25877;DHT22;13692;47.480;19.216;2023-01-10T15:07:10;7.10;99.90
25877;DHT22;13692;47.480;19.216;2023-01-10T15:09:37;7.10;99.90
25877;DHT22;13692;47.480;19.216;2023-01-10T15:12:08;7.10;99.90
25877;DHT22;13692;47.480;19.216;2023-01-10T15:14:38;7.10;99.90
25877;DHT22;13692;47.480;19.216;2023-01-10T15:17:06;7.10;99.90
25877;DHT22;13692;47.480;19.216;2023-01-10T15:19:39;7.10;99.90
25877;DHT22;13692;47.480;19.216;2023-01-10T15:22:26;7.10;99.90
25877;DHT22;13692;47.480;19.216;2023-01-10T15:27:45;7.10;99.90
25877;DHT22;13692;47.480;19.216;2023-01-10T15:30:20;7.10;99.90
25877;DHT22;13692;47.480;19.216;2023-01-10T15:32:52;7.10;99.90
25877;DHT22;13692;47.480;19.216;2023-01-10T15:35:24;7.00;99.90
25877;DHT22;13692;47.480;19.216;2023-01-10T15:38:06;7.00;99.90
25877;DHT22;13692;47.480;19.216;2023-01-10T15:40:35;7.00;99.90
25877;DHT22;13692;47.480;19.216;2023-01-10T15:45:44;7.00;99.90
25877;DHT22;13692;47.480;19.216;2023-01-10T15:48:41;7.00;99.90
25877;DHT22;13692;47.480;19.216;2023-01-10T15:56:41;7.00;99.90
25877;DHT22;13692;47.480;19.216;2023-01-10T15:59:22;7.00;99.90
25877;DHT22;13692;47.480;19.216;2023-01-10T16:02:19;7.00;99.90
25877;DHT22;13692;47.480;19.216;2023-01-10T16:04:53;7.00;99.90
25877;DHT22;13692;47.480;19.216;2023-01-10T16:12:37;7.00;99.90
25877;DHT22;13692;47.480;19.216;2023-01-10T16:15:26;7.00;99.90
25877;DHT22;13692;47.480;19.216;2023-01-10T16:17:53;7.00;99.90
25877;DHT22;13692;47.480;19.216;2023-01-10T16:20:25;7.00;99.90
25877;DHT22;13692;47.480;19.216;2023-01-10T16:22:55;7.00;99.90
25877;DHT22;13692;47.480;19.216;2023-01-10T16:25:36;7.00;99.90
25877;DHT22;13692;47.480;19.216;2023-01-10T16:28:12;7.00;99.90
25877;DHT22;13692;47.480;19.216;2023-01-10T16:30:39;7.00;99.90
25877;DHT22;13692;47.480;19.216;2023-01-10T16:33:16;7.00;99.90
25877;DHT22;13692;47.480;19.216;2023-01-10T16:35:47;7.00;99.90
25877;DHT22;13692;47.480;19.216;2023-01-10T16:38:14;7.00;99.90
25877;DHT22;13692;47.480;19.216;2023-01-10T16:40:56;7.00;99.90
25877;DHT22;13692;47.480;19.216;2023-01-10T16:43:24;7.00;99.90
25877;DHT22;13692;47.480;19.216;2023-01-10T16:45:57;7.00;99.90
25877;DHT22;13692;47.480;19.216;2023-01-10T16:48:29;7.00;99.90
25877;DHT22;13692;47.480;19.216;2023-01-10T16:53:48;7.10;99.90
25877;DHT22;13692;47.480;19.216;2023-01-10T16:56:22;7.10;99.90
25877;DHT22;13692;47.480;19.216;2023-01-10T16:58:50;7.10;99.90
25877;DHT22;13692;47.480;19.216;2023-01-10T17:01:25;7.10;99.90
25877;DHT22;13692;47.480;19.216;2023-01-10T17:03:54;7.10;99.90
25877;DHT22;13692;47.480;19.216;2023-01-10T17:06:22;7.10;99.90
25877;DHT22;13692;47.480;19.216;2023-01-10T17:08:49;7.10;99.90
25877;DHT22;13692;47.480;19.216;2023-01-10T17:11:19;7.10;99.90
25877;DHT22;13692;47.480;19.216;2023-01-10T17:13:47;7.10;99.90
25877;DHT22;13692;47.480;19.216;2023-01-10T17:16:14;7.10;99.90
25877;DHT22;13692;47.480;19.216;2023-01-10T17:18:45;7.20;99.90
25877;DHT22;13692;47.480;19.216;2023-01-10T17:21:17;7.10;99.90
25877;DHT22;13692;47.480;19.216;2023-01-10T17:23:44;7.20;99.90
25877;DHT22;13692;47.480;19.216;2023-01-10T17:26:13;7.20;99.90
25877;DHT22;13692;47.480;19.216;2023-01-10T17:28:40;7.20;99.90
25877;DHT22;13692;47.480;19.216;2023-01-10T17:31:08;7.20;99.90
25877;DHT22;13692;47.480;19.216;2023-01-10T17:33:35;7.10;99.90
25877;DHT22;13692;47.480;19.216;2023-01-10T17:36:02;7.20;99.90
25877;DHT22;13692;47.480;19.216;2023-01-10T17:38:30;7.20;99.90
25877;DHT22;13692;47.480;19.216;2023-01-10T17:40:58;7.20;99.90
25877;DHT22;13692;47.480;19.216;2023-01-10T17:43:29;7.20;99.90
25877;DHT22;13692;47.480;19.216;2023-01-10T17:45:57;7.20;99.90
25877;DHT22;13692;47.480;19.216;2023-01-10T17:48:26;7.20;99.90
25877;DHT22;13692;47.480;19.216;2023-01-10T17:50:58;7.20;99.90
25877;DHT22;13692;47.480;19.216;2023-01-10T17:53:25;7.20;99.90
25877;DHT22;13692;47.480;19.216;2023-01-10T17:55:52;7.30;99.90
25877;DHT22;13692;47.480;19.216;2023-01-10T17:58:20;7.20;99.90
25877;DHT22;13692;47.480;19.216;2023-01-10T18:00:47;7.20;99.90
25877;DHT22;13692;47.480;19.216;2023-01-10T18:03:14;7.20;99.90
25877;DHT22;13692;47.480;19.216;2023-01-10T18:05:53;7.20;99.90